Time;durP1;ratioP1;P1;durP2;ratioP2;P2;SDS_P1;SDS_P2;PMS_P1;PMS_P2;Temp;Humidity;BMP_temperature;BMP_pressure;BME280_temperature;BME280_humidity;BME280_pressure;Samples;Min_cycle;Max_cycle;Signal;HPM_P1;HPM_P2
2023/06/16 00:02:07;;;;;;;;;;;;;;;;;;5092396;28;20036;-60
2023/06/16 00:04:35;;;;;;;;;;;;;;;;;;5091814;28;19920;-60
2023/06/16 00:07:01;;;;;;;;;;;;;;;;;;5092079;28;20077;-60
2023/06/16 00:09:27;;;;;;;;;;;;;;;;;;5092434;28;19931;-60
2023/06/16 00:11:53;;;;;;;;;;;;;;;;;;5091811;28;19920;-60
2023/06/16 00:14:20;;;;;;;;;;;;;;;;;;5092087;28;19927;-60
2023/06/16 00:16:47;;;;;;;;;;;;;;;;;;5092158;28;19920;-60
2023/06/16 00:19:13;;;;;;;;;;;;;;;;;;5091717;28;19931;-60
2023/06/16 00:21:41;;;;;;;;;;;;;;;;;;5092018;28;20699;-60
2023/06/16 00:24:07;;;;;;;;;;;;;;;;;;5092111;28;19923;-60
2023/06/16 00:26:33;;;;;;;;;;;;;;;;;;5079262;28;20459;-60
2023/06/16 00:28:59;;;;;;;;;;;;;;;;;;5071822;28;19935;-60
2023/06/16 00:31:31;;;;;;;;;;;;;;;;;;5090923;28;19927;-60
2023/06/16 00:33:57;;;;;;;;;;;;;;;;;;5091274;28;20433;-60
2023/06/16 00:36:23;;;;;;;;;;;;;;;;;;5091869;28;20007;-60
2023/06/16 00:38:49;;;;;;;;;;;;;;;;;;5091700;28;19924;-60
2023/06/16 00:41:15;;;;;;;;;;;;;;;;;;5091172;28;19924;-60
2023/06/16 00:43:41;;;;;;;;;;;;;;;;;;5091661;28;19981;-60
2023/06/16 00:46:07;;;;;;;;;;;;;;;;;;5091225;28;19924;-60
2023/06/16 00:48:33;;;;;;;;;;;;;;;;;;5091063;28;19969;-60
2023/06/16 00:50:59;;;;;;;;;;;;;;;;;;5091445;28;19989;-60
2023/06/16 00:53:25;;;;;;;;;;;;;;;;;;5091505;28;19924;-60
2023/06/16 00:55:51;;;;;;;;;;;;;;;;;;5090618;28;19931;-60
2023/06/16 00:58:18;;;;;;;;;;;;;;;;;;5091460;28;19928;-60
2023/06/16 01:00:46;;;;;;;;;;;;;;;;;;5091414;28;20014;-60
2023/06/16 01:03:13;;;;;;;;;;;;;;;;;;5090644;28;19928;-60
2023/06/16 01:05:39;;;;;;;;;;;;;;;;;;5091062;28;19920;-60
2023/06/16 01:08:04;;;;;;;;;;;;;;;;;;5091148;28;20266;-60
2023/06/16 01:10:30;;;;;;;;;;;;;;;;;;5090789;28;19928;-60
2023/06/16 01:12:56;;;;;;;;;;;;;;;;;;5091333;28;19959;-60
2023/06/16 01:15:22;;;;;;;;;;;;;;;;;;5091046;28;19924;-59
2023/06/16 01:17:48;;;;;;;;;;;;;;;;;;5090403;28;19924;-59
2023/06/16 01:20:14;;;;;;;;;;;;;;;;;;5091156;28;20006;-59
2023/06/16 01:22:40;;;;;;;;;;;;;;;;;;5091027;28;19946;-59
2023/06/16 01:25:07;;;;;;;;;;;;;;;;;;5090211;28;19920;-59
2023/06/16 01:27:33;;;;;;;;;;;;;;;;;;5070585;28;19932;-59
2023/06/16 01:30:00;;;;;;;;;;;;;;;;;;5078007;28;19924;-59
2023/06/16 01:32:26;;;;;;;;;;;;;;;;;;5072717;28;20389;-59
2023/06/16 01:34:52;;;;;;;;;;;;;;;;;;5090268;28;20308;-59
2023/06/16 01:37:18;;;;;;;;;;;;;;;;;;5090048;28;20558;-59
2023/06/16 01:39:44;;;;;;;;;;;;;;;;;;5090965;28;20293;-59
2023/06/16 01:42:11;;;;;;;;;;;;;;;;;;5090337;28;19925;-59
2023/06/16 01:44:37;;;;;;;;;;;;;;;;;;5090722;28;20271;-59
2023/06/16 01:47:03;;;;;;;;;;;;;;;;;;5090753;28;19931;-59
2023/06/16 01:49:29;;;;;;;;;;;;;;;;;;5090114;28;19927;-59
2023/06/16 01:51:55;;;;;;;;;;;;;;;;;;5090816;28;19920;-59
2023/06/16 01:54:21;;;;;;;;;;;;;;;;;;5090294;28;19924;-59
2023/06/16 01:56:47;;;;;;;;;;;;;;;;;;5090232;28;19936;-59
2023/06/16 01:59:13;;;;;;;;;;;;;;;;;;5090498;28;19920;-59
2023/06/16 02:01:39;;;;;;;;;;;;;;;;;;5090670;28;19924;-59
2023/06/16 02:04:05;;;;;;;;;;;;;;;;;;5089908;28;19920;-59
2023/06/16 02:06:31;;;;;;;;;;;;;;;;;;5090659;28;20019;-59
2023/06/16 02:08:57;;;;;;;;;;;;;;;;;;5090696;28;19924;-59
2023/06/16 02:11:23;;;;;;;;;;;;;;;;;;5090055;28;19924;-59
2023/06/16 02:13:48;;;;;;;;;;;;;;;;;;5090258;28;19923;-59
2023/06/16 02:16:14;;;;;;;;;;;;;;;;;;5090611;28;19920;-59
2023/06/16 02:18:40;;;;;;;;;;;;;;;;;;5089828;28;19947;-59
2023/06/16 02:21:06;;;;;;;;;;;;;;;;;;5090177;28;19924;-59
2023/06/16 02:23:32;;;;;;;;;;;;;;;;;;5090484;28;19966;-59
2023/06/16 02:25:58;;;;;;;;;;;;;;;;;;5082714;28;20003;-59
2023/06/16 02:28:24;;;;;;;;;;;;;;;;;;5070197;28;19932;-59
2023/06/16 02:30:50;;;;;;;;;;;;;;;;;;5084468;28;19924;-59
2023/06/16 02:33:16;;;;;;;;;;;;;;;;;;5089871;28;19920;-59
2023/06/16 02:35:42;;;;;;;;;;;;;;;;;;5090199;28;19927;-59
2023/06/16 02:38:08;;;;;;;;;;;;;;;;;;5090470;28;19927;-59
2023/06/16 02:40:35;;;;;;;;;;;;;;;;;;5089854;28;19931;-59
2023/06/16 02:43:00;;;;;;;;;;;;;;;;;;5071862;28;19926;-59
2023/06/16 02:45:26;;;;;;;;;;;;;;;;;;5072420;28;19936;-59
2023/06/16 02:47:52;;;;;;;;;;;;;;;;;;5089842;28;19988;-59
2023/06/16 02:50:18;;;;;;;;;;;;;;;;;;5075785;28;19924;-59
2023/06/16 02:52:44;;;;;;;;;;;;;;;;;;5093746;28;19943;-59
2023/06/16 02:55:10;;;;;;;;;;;;;;;;;;5093113;28;19923;-59
2023/06/16 02:57:36;;;;;;;;;;;;;;;;;;5093880;28;19927;-59
2023/06/16 03:00:03;;;;;;;;;;;;;;;;;;5093878;28;19923;-59
2023/06/16 03:02:29;;;;;;;;;;;;;;;;;;5093105;28;19923;-59
2023/06/16 03:04:55;;;;;;;;;;;;;;;;;;5075329;28;19920;-59
2023/06/16 03:07:22;;;;;;;;;;;;;;;;;;5093448;28;20011;-59
2023/06/16 03:09:48;;;;;;;;;;;;;;;;;;5092814;28;19969;-59
2023/06/16 03:12:14;;;;;;;;;;;;;;;;;;5093512;28;19924;-59
2023/06/16 03:14:40;;;;;;;;;;;;;;;;;;5093194;28;19947;-59
2023/06/16 03:17:07;;;;;;;;;;;;;;;;;;5092993;28;19927;-59
2023/06/16 03:19:33;;;;;;;;;;;;;;;;;;5093462;28;19927;-59
2023/06/16 03:21:58;;;;;;;;;;;;;;;;;;5093347;28;20374;-59
2023/06/16 03:24:25;;;;;;;;;;;;;;;;;;5092617;28;19931;-59
2023/06/16 03:26:51;;;;;;;;;;;;;;;;;;5060372;28;19979;-59
2023/06/16 03:29:17;;;;;;;;;;;;;;;;;;5074342;28;19978;-59
2023/06/16 03:31:43;;;;;;;;;;;;;;;;;;5092881;28;19920;-59
2023/06/16 03:34:09;;;;;;;;;;;;;;;;;;5093044;28;19970;-59
2023/06/16 03:36:35;;;;;;;;;;;;;;;;;;5092954;28;19920;-59
2023/06/16 03:39:01;;;;;;;;;;;;;;;;;;5092384;28;20425;-59
2023/06/16 03:41:27;;;;;;;;;;;;;;;;;;5092890;28;19928;-59
2023/06/16 03:43:53;;;;;;;;;;;;;;;;;;5092715;28;19926;-59
2023/06/16 03:46:19;;;;;;;;;;;;;;;;;;5092509;28;19961;-59
2023/06/16 03:48:45;;;;;;;;;;;;;;;;;;5092704;28;19928;-59
2023/06/16 03:51:11;;;;;;;;;;;;;;;;;;5092565;28;19923;-59
2023/06/16 03:53:37;;;;;;;;;;;;;;;;;;5091744;28;19924;-59
2023/06/16 03:56:03;;;;;;;;;;;;;;;;;;5092672;28;19928;-59
2023/06/16 03:58:30;;;;;;;;;;;;;;;;;;5074462;28;19989;-59
2023/06/16 04:00:56;;;;;;;;;;;;;;;;;;5091667;28;20344;-59
2023/06/16 04:03:22;;;;;;;;;;;;;;;;;;5092426;28;19920;-59
2023/06/16 04:05:48;;;;;;;;;;;;;;;;;;5074480;28;19920;-59
2023/06/16 04:08:14;;;;;;;;;;;;;;;;;;5073911;28;20409;-59
2023/06/16 04:10:40;;;;;;;;;;;;;;;;;;5092728;28;20084;-59
2023/06/16 04:13:06;;;;;;;;;;;;;;;;;;5092132;28;19924;-59
2023/06/16 04:15:32;;;;;;;;;;;;;;;;;;5092065;28;19924;-59
2023/06/16 04:17:58;;;;;;;;;;;;;;;;;;5092621;28;19924;-59
2023/06/16 04:20:24;;;;;;;;;;;;;;;;;;5074425;28;19920;-59
2023/06/16 04:22:50;;;;;;;;;;;;;;;;;;5073827;28;20003;-59
2023/06/16 04:25:17;;;;;;;;;;;;;;;;;;5091230;28;19992;-59
2023/06/16 04:27:43;;;;;;;;;;;;;;;;;;5072061;28;20371;-59
2023/06/16 04:30:09;;;;;;;;;;;;;;;;;;5080140;28;19920;-59
2023/06/16 04:32:36;;;;;;;;;;;;;;;;;;5092309;28;19946;-59
2023/06/16 04:35:03;;;;;;;;;;;;;;;;;;5091802;28;19924;-59
2023/06/16 04:37:29;;;;;;;;;;;;;;;;;;5091599;28;20436;-59
2023/06/16 04:39:56;;;;;;;;;;;;;;;;;;5092203;28;19924;-59
2023/06/16 04:42:22;;;;;;;;;;;;;;;;;;5091719;28;20414;-59
2023/06/16 04:44:48;;;;;;;;;;;;;;;;;;5091909;28;19971;-59
2023/06/16 04:47:14;;;;;;;;;;;;;;;;;;5073605;28;19946;-59
2023/06/16 04:49:39;;;;;;;;;;;;;;;;;;5091970;28;19959;-59
2023/06/16 04:52:09;;;;;;;;;;;;;;;;;;5091867;28;19992;-59
2023/06/16 04:54:35;;;;;;;;;;;;;;;;;;5091485;28;19932;-59
2023/06/16 04:57:01;;;;;;;;;;;;;;;;;;5091483;28;19924;-59
2023/06/16 04:59:27;;;;;;;;;;;;;;;;;;5091740;28;19973;-59
2023/06/16 05:01:53;;;;;;;;;;;;;;;;;;5091367;28;19945;-59
2023/06/16 05:04:20;;;;;;;;;;;;;;;;;;5091393;28;19982;-59
2023/06/16 05:06:46;;;;;;;;;;;;;;;;;;5091735;28;20446;-59
2023/06/16 05:09:12;;;;;;;;;;;;;;;;;;5091033;28;19970;-58
2023/06/16 05:11:39;;;;;;;;;;;;;;;;;;5090859;28;19924;-59
2023/06/16 05:14:05;;;;;;;;;;;;;;;;;;5091593;28;20067;-59
2023/06/16 05:16:31;;;;;;;;;;;;;;;;;;5091127;28;20325;-59
2023/06/16 05:18:57;;;;;;;;;;;;;;;;;;5091428;28;19937;-59
2023/06/16 05:21:25;;;;;;;;;;;;;;;;;;5091478;28;19924;-59
2023/06/16 05:23:51;;;;;;;;;;;;;;;;;;5090683;28;19973;-59
2023/06/16 05:26:17;;;;;;;;;;;;;;;;;;5081583;28;19933;-59
2023/06/16 05:28:42;;;;;;;;;;;;;;;;;;5071005;28;19928;-59
2023/06/16 05:31:08;;;;;;;;;;;;;;;;;;5087603;28;20007;-59
2023/06/16 05:33:34;;;;;;;;;;;;;;;;;;5091026;28;19923;-59
2023/06/16 05:36:00;;;;;;;;;;;;;;;;;;5091159;28;19924;-59
2023/06/16 05:38:26;;;;;;;;;;;;;;;;;;5090785;28;19981;-59
2023/06/16 05:40:52;;;;;;;;;;;;;;;;;;5073034;28;19920;-59
2023/06/16 05:43:18;;;;;;;;;;;;;;;;;;5091084;28;19946;-59
2023/06/16 05:45:44;;;;;;;;;;;;;;;;;;5087341;28;19969;-59
2023/06/16 05:48:10;;;;;;;;;;;;;;;;;;5075855;28;19935;-56
2023/06/16 05:50:36;;;;;;;;;;;;;;;;;;5090548;28;19920;-59
2023/06/16 05:53:04;;;;;;;;;;;;;;;;;;5089733;28;20053;-59
2023/06/16 05:55:30;;;;;;;;;;;;;;;;;;5090860;28;19972;-59
2023/06/16 05:57:56;;;;;;;;;;;;;;;;;;5090735;28;19920;-57
2023/06/16 06:00:22;;;;;;;;;;;;;;;;;;5090177;28;20012;-57
2023/06/16 06:02:48;;;;;;;;;;;;;;;;;;5090234;28;19941;-61
2023/06/16 06:05:14;;;;;;;;;;;;;;;;;;5090486;28;19931;-57
2023/06/16 06:07:40;;;;;;;;;;;;;;;;;;5089769;28;20014;-59
2023/06/16 06:10:06;;;;;;;;;;;;;;;;;;5072383;28;19928;-57
2023/06/16 06:12:32;;;;;;;;;;;;;;;;;;5064848;28;20352;-58
2023/06/16 06:14:58;;;;;;;;;;;;;;;;;;5051465;28;19921;-60
2023/06/16 06:17:24;;;;;;;;;;;;;;;;;;5084986;28;19985;-60
2023/06/16 06:19:50;;;;;;;;;;;;;;;;;;5090491;28;19924;-59
2023/06/16 06:22:16;;;;;;;;;;;;;;;;;;5091030;28;19967;-59
2023/06/16 06:24:42;;;;;;;;;;;;;;;;;;5094014;28;19942;-59
2023/06/16 06:27:10;;;;;;;;;;;;;;;;;;5093855;28;19924;-57
2023/06/16 06:29:36;;;;;;;;;;;;;;;;;;5084874;28;19920;-62
2023/06/16 06:32:02;;;;;;;;;;;;;;;;;;5093748;28;20023;-63
2023/06/16 06:34:28;;;;;;;;;;;;;;;;;;5093826;28;20014;-60
2023/06/16 06:36:54;;;;;;;;;;;;;;;;;;5086269;28;19927;-63
2023/06/16 06:39:20;;;;;;;;;;;;;;;;;;5092016;28;19931;-61
2023/06/16 06:41:46;;;;;;;;;;;;;;;;;;5093481;28;19921;-61
2023/06/16 06:44:12;;;;;;;;;;;;;;;;;;5074406;28;19920;-61
2023/06/16 06:46:38;;;;;;;;;;;;;;;;;;5093353;28;19931;-59
2023/06/16 06:49:04;;;;;;;;;;;;;;;;;;5070402;28;19928;-60
2023/06/16 06:51:30;;;;;;;;;;;;;;;;;;5055594;28;19932;-60
2023/06/16 06:53:56;;;;;;;;;;;;;;;;;;5090738;28;19920;-59
2023/06/16 06:56:22;;;;;;;;;;;;;;;;;;5093365;28;20030;-59
2023/06/16 06:58:48;;;;;;;;;;;;;;;;;;5091976;28;19927;-59
2023/06/16 07:01:14;;;;;;;;;;;;;;;;;;5092774;28;19920;-60
2023/06/16 07:03:40;;;;;;;;;;;;;;;;;;5091614;28;19924;-60
2023/06/16 07:06:06;;;;;;;;;;;;;;;;;;5082287;28;19978;-59
2023/06/16 07:08:32;;;;;;;;;;;;;;;;;;5083259;28;19928;-61
2023/06/16 07:10:58;;;;;;;;;;;;;;;;;;5092577;28;19947;-59
2023/06/16 07:13:24;;;;;;;;;;;;;;;;;;5092397;28;19924;-62
2023/06/16 07:15:50;;;;;;;;;;;;;;;;;;5092971;28;19924;-62
2023/06/16 07:18:16;;;;;;;;;;;;;;;;;;5092701;28;20596;-60
2023/06/16 07:20:42;;;;;;;;;;;;;;;;;;5091885;28;19924;-61
2023/06/16 07:23:08;;;;;;;;;;;;;;;;;;5092477;28;19958;-62
2023/06/16 07:25:36;;;;;;;;;;;;;;;;;;5088792;28;19986;-61
2023/06/16 07:28:02;;;;;;;;;;;;;;;;;;5091089;28;19928;-62
2023/06/16 07:30:28;;;;;;;;;;;;;;;;;;5073605;28;19931;-63
2023/06/16 07:32:54;;;;;;;;;;;;;;;;;;5092162;28;19924;-61
2023/06/16 07:35:20;;;;;;;;;;;;;;;;;;5090991;28;20019;-60
2023/06/16 07:37:46;;;;;;;;;;;;;;;;;;5091833;28;19931;-58
2023/06/16 07:40:13;;;;;;;;;;;;;;;;;;5086809;28;19920;-59
2023/06/16 07:42:39;;;;;;;;;;;;;;;;;;5091914;28;19924;-60
2023/06/16 07:45:05;;;;;;;;;;;;;;;;;;5092278;28;19934;-59
2023/06/16 07:47:31;;;;;;;;;;;;;;;;;;5083539;28;19924;-59
2023/06/16 07:49:57;;;;;;;;;;;;;;;;;;5084889;28;19925;-62
2023/06/16 07:52:23;;;;;;;;;;;;;;;;;;5059431;28;19927;-61
2023/06/16 07:54:49;;;;;;;;;;;;;;;;;;5092094;28;19924;-62
2023/06/16 07:57:15;;;;;;;;;;;;;;;;;;5086744;28;19959;-62
2023/06/16 07:59:41;;;;;;;;;;;;;;;;;;5091677;28;19976;-62
2023/06/16 08:02:07;;;;;;;;;;;;;;;;;;5092050;28;19981;-63
2023/06/16 08:04:33;;;;;;;;;;;;;;;;;;5091704;28;19963;-63
2023/06/16 08:06:59;;;;;;;;;;;;;;;;;;5091013;28;19928;-60
2023/06/16 08:09:25;;;;;;;;;;;;;;;;;;5091456;28;20294;-61
2023/06/16 08:11:51;;;;;;;;;;;;;;;;;;5091738;28;19920;-60
2023/06/16 08:14:17;;;;;;;;;;;;;;;;;;5072895;28;19985;-60
2023/06/16 08:16:43;;;;;;;;;;;;;;;;;;5091429;28;19920;-57
2023/06/16 08:19:09;;;;;;;;;;;;;;;;;;5091798;28;19970;-63
2023/06/16 08:21:37;;;;;;;;;;;;;;;;;;5090495;28;19924;-62
2023/06/16 08:24:03;;;;;;;;;;;;;;;;;;5091602;28;19951;-62
2023/06/16 08:26:29;;;;;;;;;;;;;;;;;;5091057;28;20421;-62
2023/06/16 08:28:55;;;;;;;;;;;;;;;;;;5090241;28;19928;-61
2023/06/16 08:31:21;;;;;;;;;;;;;;;;;;5090845;28;19920;-62
2023/06/16 08:33:47;;;;;;;;;;;;;;;;;;5090889;28;19928;-62
2023/06/16 08:36:13;;;;;;;;;;;;;;;;;;5090608;28;19920;-62
2023/06/16 08:38:39;;;;;;;;;;;;;;;;;;5090949;28;19943;-61
2023/06/16 08:41:10;;;;;;;;;;;;;;;;;;5085861;28;19971;-61
2023/06/16 08:43:36;;;;;;;;;;;;;;;;;;5072618;28;19955;-60
2023/06/16 08:46:02;;;;;;;;;;;;;;;;;;5080976;28;19932;-62
2023/06/16 08:48:28;;;;;;;;;;;;;;;;;;5080558;28;19928;-62
2023/06/16 08:50:55;;;;;;;;;;;;;;;;;;5067207;28;19924;-61
2023/06/16 08:53:22;;;;;;;;;;;;;;;;;;5091009;28;19928;-62
2023/06/16 08:55:48;;;;;;;;;;;;;;;;;;5090995;28;19973;-60
2023/06/16 08:58:16;;;;;;;;;;;;;;;;;;5090028;28;19927;-64
2023/06/16 09:00:43;;;;;;;;;;;;;;;;;;5089942;28;19924;-63
2023/06/16 09:03:09;;;;;;;;;;;;;;;;;;5090648;28;20040;-63
2023/06/16 09:05:36;;;;;;;;;;;;;;;;;;5090289;28;19938;-60
2023/06/16 09:08:02;;;;;;;;;;;;;;;;;;5071990;28;19935;-63
2023/06/16 09:10:28;;;;;;;;;;;;;;;;;;5090146;28;19928;-62
2023/06/16 09:12:54;;;;;;;;;;;;;;;;;;5089591;28;19924;-62
2023/06/16 09:15:21;;;;;;;;;;;;;;;;;;5090910;28;20039;-60
2023/06/16 09:17:47;;;;;;;;;;;;;;;;;;5072211;28;19927;-62
2023/06/16 09:20:13;;;;;;;;;;;;;;;;;;5089769;28;19971;-62
2023/06/16 09:22:39;;;;;;;;;;;;;;;;;;5090199;28;19974;-60
2023/06/16 09:25:05;;;;;;;;;;;;;;;;;;5090058;28;19979;-60
2023/06/16 09:27:31;;;;;;;;;;;;;;;;;;5066728;28;20035;-61
2023/06/16 09:29:57;;;;;;;;;;;;;;;;;;5089753;28;20023;-62
2023/06/16 09:32:23;;;;;;;;;;;;;;;;;;5071873;28;19924;-60
2023/06/16 09:34:50;;;;;;;;;;;;;;;;;;5089693;28;19942;-59
2023/06/16 09:37:16;;;;;;;;;;;;;;;;;;5089991;28;20377;-60
2023/06/16 09:39:42;;;;;;;;;;;;;;;;;;5090309;28;19921;-62
2023/06/16 09:42:07;;;;;;;;;;;;;;;;;;5089662;28;19950;-62
2023/06/16 09:44:33;;;;;;;;;;;;;;;;;;5090316;28;19920;-63
2023/06/16 09:47:00;;;;;;;;;;;;;;;;;;5072247;28;19985;-61
2023/06/16 09:49:26;;;;;;;;;;;;;;;;;;5089675;28;20351;-63
2023/06/16 09:51:52;;;;;;;;;;;;;;;;;;5089669;28;19967;-59
2023/06/16 09:54:18;;;;;;;;;;;;;;;;;;5089906;28;19989;-59
2023/06/16 09:56:44;;;;;;;;;;;;;;;;;;5071407;28;19919;-62
2023/06/16 09:59:10;;;;;;;;;;;;;;;;;;5076516;28;19970;-60
2023/06/16 10:01:36;;;;;;;;;;;;;;;;;;5093842;28;19920;-62
2023/06/16 10:04:02;;;;;;;;;;;;;;;;;;5075708;28;19943;-60
2023/06/16 10:06:28;;;;;;;;;;;;;;;;;;5093715;28;19929;-60
2023/06/16 10:08:56;;;;;;;;;;;;;;;;;;5093635;28;19975;-61
2023/06/16 10:11:22;;;;;;;;;;;;;;;;;;5092799;28;20007;-62
2023/06/16 10:13:48;;;;;;;;;;;;;;;;;;5093716;28;19928;-62
2023/06/16 10:16:14;;;;;;;;;;;;;;;;;;5094358;28;19992;-62
2023/06/16 10:18:40;;;;;;;;;;;;;;;;;;5092774;28;19926;-62
2023/06/16 10:21:07;;;;;;;;;;;;;;;;;;5093445;28;19924;-63
2023/06/16 10:23:33;;;;;;;;;;;;;;;;;;5094090;28;19924;-62
2023/06/16 10:25:59;;;;;;;;;;;;;;;;;;5081231;28;19931;-62
2023/06/16 10:28:25;;;;;;;;;;;;;;;;;;5078717;28;20015;-62
2023/06/16 10:30:51;;;;;;;;;;;;;;;;;;5093484;28;19920;-61
2023/06/16 10:33:17;;;;;;;;;;;;;;;;;;5093005;28;19924;-60
2023/06/16 10:35:43;;;;;;;;;;;;;;;;;;5093314;28;20010;-62
2023/06/16 10:38:09;;;;;;;;;;;;;;;;;;5093244;28;20363;-64
2023/06/16 10:40:35;;;;;;;;;;;;;;;;;;5092999;28;19927;-62
2023/06/16 10:43:02;;;;;;;;;;;;;;;;;;5093455;28;20294;-58
2023/06/16 10:45:28;;;;;;;;;;;;;;;;;;5093244;28;19924;-58
2023/06/16 10:47:55;;;;;;;;;;;;;;;;;;5092938;28;19931;-59
2023/06/16 10:50:21;;;;;;;;;;;;;;;;;;5092899;28;20467;-59
2023/06/16 10:52:47;;;;;;;;;;;;;;;;;;5092984;28;20003;-59
2023/06/16 10:55:13;;;;;;;;;;;;;;;;;;5092922;28;19928;-59
2023/06/16 10:57:39;;;;;;;;;;;;;;;;;;5092879;28;19999;-64
2023/06/16 11:00:11;;;;;;;;;;;;;;;;;;5092926;28;19920;-63
2023/06/16 11:02:37;;;;;;;;;;;;;;;;;;5092457;28;20038;-62
2023/06/16 11:05:04;;;;;;;;;;;;;;;;;;5092609;28;20030;-61
2023/06/16 11:07:30;;;;;;;;;;;;;;;;;;5074975;28;20401;-61
2023/06/16 11:09:56;;;;;;;;;;;;;;;;;;5072635;28;19985;-61
2023/06/16 11:12:22;;;;;;;;;;;;;;;;;;5093131;28;19924;-61
2023/06/16 11:14:48;;;;;;;;;;;;;;;;;;5092384;28;19947;-61
2023/06/16 11:17:14;;;;;;;;;;;;;;;;;;5092156;28;19924;-60
2023/06/16 11:19:41;;;;;;;;;;;;;;;;;;5092606;28;20027;-60
2023/06/16 11:22:08;;;;;;;;;;;;;;;;;;5092714;28;19924;-63
2023/06/16 11:24:34;;;;;;;;;;;;;;;;;;5092226;28;19924;-63
2023/06/16 11:27:00;;;;;;;;;;;;;;;;;;5092471;28;19924;-62
2023/06/16 11:29:27;;;;;;;;;;;;;;;;;;5092260;28;19927;-63
2023/06/16 11:31:53;;;;;;;;;;;;;;;;;;5091827;28;20417;-64
2023/06/16 11:34:19;;;;;;;;;;;;;;;;;;5092031;28;19920;-63
2023/06/16 11:36:45;;;;;;;;;;;;;;;;;;5092440;28;19945;-63
2023/06/16 11:39:11;;;;;;;;;;;;;;;;;;5091884;28;20014;-62
2023/06/16 11:41:37;;;;;;;;;;;;;;;;;;5091703;28;19924;-62
2023/06/16 11:44:03;;;;;;;;;;;;;;;;;;5092004;28;19924;-63
2023/06/16 11:46:29;;;;;;;;;;;;;;;;;;5091886;28;20010;-63
2023/06/16 11:48:55;;;;;;;;;;;;;;;;;;5091168;28;19924;-62
2023/06/16 11:51:21;;;;;;;;;;;;;;;;;;5090871;28;20381;-62
2023/06/16 11:53:47;;;;;;;;;;;;;;;;;;5073669;28;19927;-64
2023/06/16 11:56:13;;;;;;;;;;;;;;;;;;5091554;28;19931;-62
2023/06/16 11:58:40;;;;;;;;;;;;;;;;;;5091694;28;19924;-62
2023/06/16 12:01:06;;;;;;;;;;;;;;;;;;5091485;28;19928;-62
2023/06/16 12:03:32;;;;;;;;;;;;;;;;;;5091048;28;19920;-64
2023/06/16 12:05:58;;;;;;;;;;;;;;;;;;5091357;28;19928;-62
2023/06/16 12:08:23;;;;;;;;;;;;;;;;;;5091271;28;19920;-64
2023/06/16 12:10:49;;;;;;;;;;;;;;;;;;5090650;28;19951;-62
2023/06/16 12:13:16;;;;;;;;;;;;;;;;;;5091197;28;19919;-62
2023/06/16 12:15:42;;;;;;;;;;;;;;;;;;5091310;28;20020;-62
2023/06/16 12:18:08;;;;;;;;;;;;;;;;;;5090706;28;20439;-62
2023/06/16 12:20:34;;;;;;;;;;;;;;;;;;5091110;28;20066;-64
2023/06/16 12:23:00;;;;;;;;;;;;;;;;;;5073146;28;19928;-63
2023/06/16 12:25:26;;;;;;;;;;;;;;;;;;5088514;28;19967;-63
2023/06/16 12:27:53;;;;;;;;;;;;;;;;;;5071265;28;19925;-60
2023/06/16 12:30:19;;;;;;;;;;;;;;;;;;5082584;28;19935;-62
2023/06/16 12:32:45;;;;;;;;;;;;;;;;;;5090361;28;19920;-64
2023/06/16 12:35:12;;;;;;;;;;;;;;;;;;5091253;28;19973;-64
2023/06/16 12:37:38;;;;;;;;;;;;;;;;;;5091232;28;20576;-63
2023/06/16 12:40:04;;;;;;;;;;;;;;;;;;5090909;28;20006;-62
2023/06/16 12:42:30;;;;;;;;;;;;;;;;;;5072989;28;19986;-62
2023/06/16 12:44:58;;;;;;;;;;;;;;;;;;5091122;28;19951;-64
2023/06/16 12:47:24;;;;;;;;;;;;;;;;;;5090502;28;19931;-61
2023/06/16 12:49:51;;;;;;;;;;;;;;;;;;5090943;28;19924;-62
2023/06/16 12:52:19;;;;;;;;;;;;;;;;;;5091407;28;19920;-63
2023/06/16 12:54:45;;;;;;;;;;;;;;;;;;5090308;28;20467;-61
2023/06/16 12:57:11;;;;;;;;;;;;;;;;;;5090955;28;20039;-62
2023/06/16 12:59:37;;;;;;;;;;;;;;;;;;5072963;28;20003;-62
2023/06/16 13:02:03;;;;;;;;;;;;;;;;;;5090361;28;20468;-62
2023/06/16 13:04:29;;;;;;;;;;;;;;;;;;5090850;28;19924;-62
2023/06/16 13:06:55;;;;;;;;;;;;;;;;;;5090509;28;19944;-60
2023/06/16 13:09:21;;;;;;;;;;;;;;;;;;5090260;28;20002;-60
2023/06/16 13:11:48;;;;;;;;;;;;;;;;;;5091008;28;19927;-60
2023/06/16 13:14:14;;;;;;;;;;;;;;;;;;5090320;28;19920;-63
2023/06/16 13:16:40;;;;;;;;;;;;;;;;;;5090423;28;19931;-63
2023/06/16 13:19:06;;;;;;;;;;;;;;;;;;5090720;28;19928;-61
2023/06/16 13:21:31;;;;;;;;;;;;;;;;;;5090517;28;19920;-63
2023/06/16 13:23:57;;;;;;;;;;;;;;;;;;5089807;28;19981;-64
2023/06/16 13:26:23;;;;;;;;;;;;;;;;;;5090043;28;19928;-62
2023/06/16 13:28:49;;;;;;;;;;;;;;;;;;5090603;28;19924;-64
2023/06/16 13:31:15;;;;;;;;;;;;;;;;;;5089451;28;19924;-62
2023/06/16 13:33:41;;;;;;;;;;;;;;;;;;5089673;28;19927;-63
2023/06/16 13:36:07;;;;;;;;;;;;;;;;;;5090158;28;20033;-63
2023/06/16 13:38:34;;;;;;;;;;;;;;;;;;5089873;28;20063;-64
2023/06/16 13:41:00;;;;;;;;;;;;;;;;;;5090340;28;20271;-65
2023/06/16 13:43:26;;;;;;;;;;;;;;;;;;5090082;28;19927;-64
2023/06/16 13:45:51;;;;;;;;;;;;;;;;;;5090011;28;19920;-63
2023/06/16 13:48:19;;;;;;;;;;;;;;;;;;5090371;28;19935;-63
2023/06/16 13:50:45;;;;;;;;;;;;;;;;;;5090385;28;20294;-63
2023/06/16 13:53:11;;;;;;;;;;;;;;;;;;5090057;28;20363;-63
2023/06/16 13:55:37;;;;;;;;;;;;;;;;;;5072559;28;19927;-63
2023/06/16 13:58:03;;;;;;;;;;;;;;;;;;5090565;28;19927;-63
2023/06/16 14:00:29;;;;;;;;;;;;;;;;;;5089943;28;20306;-63
2023/06/16 14:02:55;;;;;;;;;;;;;;;;;;5090399;28;19963;-63
2023/06/16 14:05:21;;;;;;;;;;;;;;;;;;5090366;28;19993;-63
2023/06/16 14:07:47;;;;;;;;;;;;;;;;;;5089590;28;19982;-63
2023/06/16 14:10:13;;;;;;;;;;;;;;;;;;5090506;28;19924;-63
2023/06/16 14:12:41;;;;;;;;;;;;;;;;;;5090514;28;19920;-63
2023/06/16 14:15:07;;;;;;;;;;;;;;;;;;5089796;28;19955;-63
2023/06/16 14:17:33;;;;;;;;;;;;;;;;;;5090342;28;19974;-63
2023/06/16 14:19:59;;;;;;;;;;;;;;;;;;5090380;28;19928;-63
2023/06/16 14:22:25;;;;;;;;;;;;;;;;;;5089979;28;20007;-63
2023/06/16 14:24:51;;;;;;;;;;;;;;;;;;5089989;28;20006;-63
2023/06/16 14:27:17;;;;;;;;;;;;;;;;;;5072632;28;20019;-63
2023/06/16 14:29:43;;;;;;;;;;;;;;;;;;5056406;28;20418;-63
2023/06/16 14:32:09;;;;;;;;;;;;;;;;;;5090205;28;19924;-63
2023/06/16 14:34:35;;;;;;;;;;;;;;;;;;5090137;28;20347;-63
2023/06/16 14:37:01;;;;;;;;;;;;;;;;;;5089769;28;19927;-63
2023/06/16 14:39:27;;;;;;;;;;;;;;;;;;5090052;28;19924;-63
2023/06/16 14:41:53;;;;;;;;;;;;;;;;;;5090400;28;19924;-63
2023/06/16 14:44:20;;;;;;;;;;;;;;;;;;5092158;28;19963;-63
2023/06/16 14:46:46;;;;;;;;;;;;;;;;;;5093775;28;19924;-63
2023/06/16 14:49:12;;;;;;;;;;;;;;;;;;5093864;28;20011;-63
2023/06/16 14:51:37;;;;;;;;;;;;;;;;;;5093681;28;19988;-63
2023/06/16 14:54:03;;;;;;;;;;;;;;;;;;5093458;28;19920;-63
2023/06/16 14:56:30;;;;;;;;;;;;;;;;;;5093972;28;19924;-63
2023/06/16 14:58:56;;;;;;;;;;;;;;;;;;5093955;28;19920;-63
2023/06/16 15:01:22;;;;;;;;;;;;;;;;;;5093131;28;19928;-63
2023/06/16 15:03:48;;;;;;;;;;;;;;;;;;5093765;28;19924;-63
2023/06/16 15:06:14;;;;;;;;;;;;;;;;;;5093760;28;19927;-63
2023/06/16 15:08:41;;;;;;;;;;;;;;;;;;5093184;28;19942;-63
2023/06/16 15:11:06;;;;;;;;;;;;;;;;;;5093813;28;19973;-63
2023/06/16 15:13:32;;;;;;;;;;;;;;;;;;5093425;28;19920;-63
2023/06/16 15:15:58;;;;;;;;;;;;;;;;;;5093031;28;19950;-63
2023/06/16 15:18:24;;;;;;;;;;;;;;;;;;5093502;28;19920;-63
2023/06/16 15:20:50;;;;;;;;;;;;;;;;;;5093466;28;19999;-63
2023/06/16 15:23:16;;;;;;;;;;;;;;;;;;5092933;28;19986;-61
2023/06/16 15:25:42;;;;;;;;;;;;;;;;;;5088302;28;19929;-61
2023/06/16 15:28:08;;;;;;;;;;;;;;;;;;5072845;28;19971;-61
2023/06/16 15:30:34;;;;;;;;;;;;;;;;;;5084180;28;20349;-61
2023/06/16 15:33:00;;;;;;;;;;;;;;;;;;5092949;28;19975;-61
2023/06/16 15:35:26;;;;;;;;;;;;;;;;;;5093187;28;19920;-61
2023/06/16 15:37:52;;;;;;;;;;;;;;;;;;5092581;28;19924;-61
2023/06/16 15:40:18;;;;;;;;;;;;;;;;;;5093070;28;19928;-61
2023/06/16 15:42:44;;;;;;;;;;;;;;;;;;5092939;28;19988;-61
2023/06/16 15:45:11;;;;;;;;;;;;;;;;;;5092274;28;19924;-61
2023/06/16 15:47:37;;;;;;;;;;;;;;;;;;5092655;28;20007;-61
2023/06/16 15:50:03;;;;;;;;;;;;;;;;;;5092590;28;20011;-61
2023/06/16 15:52:29;;;;;;;;;;;;;;;;;;5092198;28;19920;-61
2023/06/16 15:54:55;;;;;;;;;;;;;;;;;;5091606;28;19967;-61
2023/06/16 15:57:21;;;;;;;;;;;;;;;;;;5092781;28;19966;-61
2023/06/16 15:59:47;;;;;;;;;;;;;;;;;;5092282;28;20472;-61
2023/06/16 16:02:13;;;;;;;;;;;;;;;;;;5092543;28;20011;-61
2023/06/16 16:04:39;;;;;;;;;;;;;;;;;;5074321;28;19966;-61
2023/06/16 16:07:05;;;;;;;;;;;;;;;;;;5091875;28;19952;-61
2023/06/16 16:09:31;;;;;;;;;;;;;;;;;;5092653;28;19924;-61
2023/06/16 16:11:57;;;;;;;;;;;;;;;;;;5092408;28;19947;-61
2023/06/16 16:14:23;;;;;;;;;;;;;;;;;;5073483;28;19924;-61
2023/06/16 16:16:49;;;;;;;;;;;;;;;;;;5092321;28;19983;-61
2023/06/16 16:19:16;;;;;;;;;;;;;;;;;;5092181;28;19920;-61
2023/06/16 16:21:42;;;;;;;;;;;;;;;;;;5091443;28;19969;-61
2023/06/16 16:24:09;;;;;;;;;;;;;;;;;;5092129;28;20833;-61
2023/06/16 16:26:35;;;;;;;;;;;;;;;;;;5079823;28;20315;-61
2023/06/16 16:29:01;;;;;;;;;;;;;;;;;;5053196;28;20031;-61
2023/06/16 16:31:27;;;;;;;;;;;;;;;;;;5091116;28;20003;-61
2023/06/16 16:33:53;;;;;;;;;;;;;;;;;;5091963;28;19923;-61
2023/06/16 16:36:19;;;;;;;;;;;;;;;;;;5091360;28;20076;-61
2023/06/16 16:38:45;;;;;;;;;;;;;;;;;;5091719;28;19924;-61